createdAt,value
2017-01-23T00:00:42.542Z,72.33
2017-01-23T00:01:53.284Z,72.9
2017-01-23T00:03:03.629Z,71.86
2017-01-23T00:04:14.023Z,72.14
2017-01-23T00:05:24.404Z,72.24
2017-01-23T00:06:35.141Z,72.24
2017-01-23T00:07:45.107Z,71.86
2017-01-23T00:08:55.488Z,72.33
2017-01-23T00:10:05.834Z,72.43
2017-01-23T00:11:15.778Z,72.02
2017-01-23T00:12:26.139Z,72.14
2017-01-23T00:13:36.509Z,72.2
2017-01-23T00:14:46.861Z,72.02
2017-01-23T00:15:57.198Z,72.14
2017-01-23T00:17:07.544Z,72.11
2017-01-23T00:18:18.284Z,72.02
2017-01-23T00:19:29.053Z,71.92
2017-01-23T00:20:39.801Z,72.24
2017-01-23T00:21:50.543Z,72.2
2017-01-23T00:23:01.303Z,71.83
2017-01-23T00:24:11.251Z,72.11
2017-01-23T00:25:21.982Z,72.11
2017-01-23T00:26:32.731Z,72.11
2017-01-23T00:27:43.488Z,72.02
2017-01-23T00:28:54.237Z,72.2
2017-01-23T00:30:04.967Z,72.2
2017-01-23T00:31:15.716Z,72.2
2017-01-23T00:32:26.448Z,72.02
2017-01-23T00:33:36.791Z,72.3
2017-01-23T00:34:47.536Z,72.11
2017-01-23T00:35:58.296Z,72.3
2017-01-23T00:37:08.649Z,72.2
2017-01-23T00:38:19.005Z,72.11
2017-01-23T00:39:29.357Z,72.2
2017-01-23T00:40:40.093Z,72.11
2017-01-23T00:41:50.439Z,72.11
2017-01-23T00:43:01.190Z,72.3
2017-01-23T00:44:11.938Z,72.2
2017-01-23T00:45:22.680Z,72.49
2017-01-23T00:46:33.030Z,72.49
2017-01-23T00:47:43.779Z,72.39
2017-01-23T00:48:54.125Z,72.39
2017-01-23T00:50:04.101Z,72.49
2017-01-23T00:51:14.439Z,72.49
2017-01-23T00:52:24.826Z,72.11
2017-01-23T00:53:35.572Z,72.2
2017-01-23T00:54:45.514Z,72.2
2017-01-23T00:55:56.254Z,72.2
2017-01-23T00:57:06.211Z,72.11
2017-01-23T00:58:17.002Z,72.2
2017-01-23T00:59:27.363Z,72.11
2017-01-23T01:00:38.095Z,72.49
2017-01-23T01:01:48.456Z,72.39
2017-01-23T01:02:58.778Z,72.11
2017-01-23T01:04:08.345Z,72.39
2017-01-23T01:05:19.084Z,72.2
2017-01-23T01:06:29.051Z,72.39
2017-01-23T01:07:39.395Z,72.2
2017-01-23T01:08:50.131Z,72.2
2017-01-23T01:10:00.083Z,72.49
2017-01-23T01:11:10.831Z,72.2
2017-01-23T01:12:20.783Z,72.2
2017-01-23T01:13:31.151Z,72.58
2017-01-23T01:14:41.899Z,72.39
2017-01-23T01:15:52.656Z,72.39
2017-01-23T01:17:02.604Z,72.39
2017-01-23T01:18:12.558Z,72.39
2017-01-23T01:19:22.502Z,72.39
2017-01-23T01:20:33.239Z,72.3
2017-01-23T01:21:43.589Z,72.39
2017-01-23T01:22:54.329Z,72.49
2017-01-23T01:24:05.082Z,72.39
2017-01-23T01:25:15.838Z,72.49
2017-01-23T01:26:26.586Z,72.49
2017-01-23T01:27:37.328Z,72.49
2017-01-23T01:28:48.067Z,72.49
2017-01-23T01:29:58.808Z,72.49
2017-01-23T01:31:09.553Z,72.39
2017-01-23T01:32:20.332Z,72.49
2017-01-23T01:33:29.887Z,72.3
2017-01-23T01:34:40.256Z,72.67
2017-01-23T01:35:51.006Z,72.49
2017-01-23T01:37:01.766Z,72.49
2017-01-23T01:38:12.556Z,72.49
2017-01-23T01:39:23.300Z,72.39
2017-01-23T01:40:33.662Z,72.49
2017-01-23T01:41:44.010Z,72.49
2017-01-23T01:42:54.364Z,72.49
2017-01-23T01:44:05.129Z,72.3
2017-01-23T01:45:15.509Z,72.3
2017-01-23T01:46:26.245Z,72.49
2017-01-23T01:47:37.036Z,72.39
2017-01-23T01:48:47.782Z,72.39
2017-01-23T01:49:58.542Z,72.2
2017-01-23T01:51:09.286Z,72.49
2017-01-23T01:52:20.020Z,72.39
2017-01-23T01:53:29.981Z,72.39
2017-01-23T01:54:40.332Z,72.3
2017-01-23T01:55:51.099Z,72.58
2017-01-23T01:57:01.456Z,72.58
2017-01-23T01:58:11.814Z,72.3
2017-01-23T01:59:22.160Z,72.3
2017-01-23T02:00:32.907Z,72.49
2017-01-23T02:01:43.645Z,72.49
2017-01-23T02:02:54.388Z,72.49
2017-01-23T02:04:05.124Z,72.3
2017-01-23T02:05:15.871Z,72.49
2017-01-23T02:06:26.612Z,72.39
2017-01-23T02:07:36.559Z,72.58
2017-01-23T02:08:46.541Z,72.58
2017-01-23T02:09:56.897Z,72.3
2017-01-23T02:11:07.864Z,72.3
2017-01-23T02:12:18.211Z,72.39
2017-01-23T02:13:28.957Z,72.39
2017-01-23T02:14:39.680Z,72.39
2017-01-23T02:15:50.016Z,72.49
2017-01-23T02:17:00.372Z,72.39
2017-01-23T02:18:10.719Z,72.58
2017-01-23T02:19:21.477Z,72.3
2017-01-23T02:20:32.226Z,72.49
2017-01-23T02:21:42.565Z,72.49
2017-01-23T02:22:52.524Z,72.2
2017-01-23T02:24:03.254Z,72.58
2017-01-23T02:25:14.001Z,72.2
2017-01-23T02:26:24.737Z,72.39
2017-01-23T02:27:35.490Z,72.3
2017-01-23T02:28:45.851Z,72.3
2017-01-23T02:29:56.215Z,72.58
2017-01-23T02:31:06.613Z,72.58
2017-01-23T02:32:17.354Z,72.39
2017-01-23T02:33:28.122Z,72.3
2017-01-23T02:34:38.874Z,72.58
2017-01-23T02:35:49.240Z,72.58
2017-01-23T02:36:59.976Z,72.3
2017-01-23T02:38:10.335Z,72.58
2017-01-23T02:39:21.063Z,72.67
2017-01-23T02:40:31.837Z,72.67
2017-01-23T02:41:42.190Z,72.49
2017-01-23T02:42:52.956Z,72.49
2017-01-23T02:44:03.312Z,72.3
2017-01-23T02:45:13.667Z,72.49
2017-01-23T02:46:24.040Z,72.39
2017-01-23T02:47:34.817Z,72.3
2017-01-23T02:48:44.760Z,72.39
2017-01-23T02:49:55.495Z,72.3
2017-01-23T02:51:05.848Z,72.58
2017-01-23T02:52:16.204Z,72.67
2017-01-23T02:53:26.556Z,72.3
2017-01-23T02:54:36.920Z,72.3
2017-01-23T02:55:47.679Z,72.49
2017-01-23T02:56:58.017Z,72.3
2017-01-23T02:58:07.961Z,72.58
2017-01-23T02:59:17.525Z,72.39
2017-01-23T03:00:27.486Z,72.49
2017-01-23T03:01:37.838Z,72.49
2017-01-23T03:33:14.558Z,69.07
2017-01-23T03:34:25.289Z,70.2
2017-01-23T03:35:36.031Z,71.25
2017-01-23T03:36:46.762Z,72.28
2017-01-23T03:37:56.706Z,72.28
2017-01-23T03:39:07.074Z,73.03
2017-01-23T03:40:17.427Z,73.64
2017-01-23T03:41:27.775Z,73.93
2017-01-23T03:42:38.515Z,74.02
2017-01-23T03:43:48.861Z,74.21
2017-01-23T03:44:59.222Z,74.21
2017-01-23T03:46:09.963Z,74.21
2017-01-23T03:47:20.699Z,73.93
2017-01-23T03:48:31.047Z,73.58
2017-01-23T03:49:41.776Z,73.49
2017-01-23T03:50:51.720Z,73.3
2017-01-23T03:52:02.068Z,73.3
2017-01-23T03:53:12.810Z,73.3
2017-01-23T03:54:23.582Z,73.49
2017-01-23T03:55:33.921Z,73.11
2017-01-23T03:56:44.284Z,73.3
2017-01-23T03:57:54.245Z,73.02
2017-01-23T03:59:04.989Z,73.02
2017-01-23T04:00:15.758Z,72.96
2017-01-23T04:01:26.487Z,72.86
2017-01-23T04:02:37.233Z,73.05
2017-01-23T04:03:47.208Z,72.49
2017-01-23T04:04:57.156Z,72.39
2017-01-23T04:06:07.933Z,72.58
2017-01-23T04:07:18.271Z,72.67
2017-01-23T04:08:28.624Z,72.49
2017-01-23T04:09:38.585Z,72.39
2017-01-23T04:10:48.938Z,72.58
2017-01-23T04:11:59.698Z,72.49
2017-01-23T04:13:10.430Z,72.58
2017-01-23T04:14:21.167Z,72.49
2017-01-23T04:15:31.919Z,72.77
2017-01-23T04:16:42.274Z,72.77
2017-01-23T04:17:52.221Z,72.58
2017-01-23T04:19:02.580Z,72.58
2017-01-23T04:20:12.916Z,72.3
2017-01-23T04:21:23.650Z,72.02
2017-01-23T04:22:34.002Z,72.3
2017-01-23T04:23:44.755Z,72.3
2017-01-23T04:24:55.527Z,71.83
2017-01-23T04:26:06.301Z,72.77
2017-01-23T04:27:16.241Z,71.83
2017-01-23T04:28:25.793Z,71.92
2017-01-23T04:29:36.141Z,71.83
2017-01-23T04:30:46.481Z,71.83
2017-01-23T04:31:56.817Z,71.83
2017-01-23T04:33:07.165Z,71.83
2017-01-23T04:34:17.906Z,72.2
2017-01-23T04:35:28.248Z,72.2
2017-01-23T04:36:38.599Z,72.3
2017-01-23T04:37:48.970Z,72.11
2017-01-23T04:38:59.703Z,72.2
2017-01-23T04:40:10.442Z,72.11
2017-01-23T04:41:20.389Z,72.2
2017-01-23T04:42:30.743Z,72.49
2017-01-23T04:43:41.150Z,72.39
2017-01-23T04:44:51.484Z,72.39
2017-01-23T04:46:01.828Z,72.3
2017-01-23T04:47:11.787Z,72.58
2017-01-23T04:48:22.127Z,72.3
2017-01-23T04:49:32.481Z,72.58
2017-01-23T04:50:42.832Z,72.67
2017-01-23T04:51:53.579Z,72.39
2017-01-23T04:53:03.540Z,72.3
2017-01-23T04:54:14.317Z,71.73
2017-01-23T04:55:25.060Z,72.67
2017-01-23T04:56:35.804Z,71.64
2017-01-23T04:57:46.190Z,72.3
2017-01-23T04:58:56.192Z,72.39
2017-01-23T05:00:06.545Z,71.83
2017-01-23T05:01:17.309Z,72.39
2017-01-23T05:02:28.054Z,71.64
2017-01-23T05:03:38.790Z,71.83
2017-01-23T05:04:49.567Z,72.3
2017-01-23T05:06:00.365Z,71.64
2017-01-23T05:07:10.725Z,71.83
2017-01-23T05:08:21.481Z,72.3
2017-01-23T05:09:32.234Z,72.39
2017-01-23T05:10:42.181Z,72.39
2017-01-23T05:11:52.926Z,71.64
2017-01-23T05:13:03.678Z,71.73
2017-01-23T05:14:14.430Z,71.64
2017-01-23T05:15:25.161Z,71.64
2017-01-23T05:16:35.123Z,71.64
2017-01-23T05:17:45.865Z,71.64
2017-01-23T05:18:56.235Z,71.92
2017-01-23T05:20:06.984Z,72.49
2017-01-23T05:21:17.326Z,72.49
2017-01-23T05:22:27.677Z,72.67
2017-01-23T05:23:38.413Z,72.49
2017-01-23T05:24:48.753Z,72.58
2017-01-23T05:25:58.723Z,72.58
2017-01-23T05:27:09.070Z,72.39
2017-01-23T05:28:19.821Z,72.3
2017-01-23T05:29:30.166Z,72.3
2017-01-23T05:30:40.910Z,71.64
2017-01-23T05:31:51.246Z,71.64
2017-01-23T05:33:00.821Z,72.39
2017-01-23T05:34:11.565Z,71.64
2017-01-23T05:35:21.540Z,71.83
2017-01-23T05:36:32.318Z,71.73
2017-01-23T05:37:43.055Z,71.83
2017-01-23T05:38:53.421Z,71.83
2017-01-23T05:40:03.371Z,71.73
2017-01-23T05:41:13.716Z,71.83
2017-01-23T05:42:24.457Z,71.83
2017-01-23T05:43:33.615Z,71.73
2017-01-23T05:44:43.970Z,72.49
2017-01-23T05:45:54.322Z,71.73
2017-01-23T05:47:05.062Z,71.73
2017-01-23T05:48:15.416Z,71.64
2017-01-23T05:49:26.153Z,71.83
2017-01-23T05:50:36.493Z,72.39
2017-01-23T05:51:46.849Z,72.49
2017-01-23T05:52:57.646Z,72.3
2017-01-23T05:54:07.994Z,72.3
2017-01-23T05:55:17.955Z,72.67
2017-01-23T05:56:28.297Z,72.67
2017-01-23T05:57:38.646Z,72.3
2017-01-23T05:58:49.391Z,71.73
2017-01-23T06:00:00.135Z,71.92
2017-01-23T06:01:10.494Z,71.73
2017-01-23T06:02:20.831Z,71.73
2017-01-23T06:03:31.570Z,71.73
2017-01-23T06:04:41.920Z,71.92
2017-01-23T06:05:52.268Z,72.02
2017-01-23T06:07:03.018Z,71.83
2017-01-23T06:08:13.765Z,72.02
2017-01-23T06:09:24.506Z,72.02
2017-01-23T06:10:35.255Z,71.92
2017-01-23T06:11:46.000Z,71.73
2017-01-23T06:12:56.746Z,71.83
2017-01-23T06:14:07.090Z,71.92
2017-01-23T06:15:17.439Z,71.92
2017-01-23T06:16:28.195Z,71.92
2017-01-23T06:17:38.940Z,71.83
2017-01-23T06:18:49.690Z,71.83
2017-01-23T06:19:59.262Z,71.83
2017-01-23T06:21:09.609Z,71.83
2017-01-23T06:22:20.354Z,72.02
2017-01-23T06:23:31.080Z,71.92
2017-01-23T06:24:41.024Z,71.92
2017-01-23T06:25:51.361Z,71.92
2017-01-23T06:27:01.717Z,72.02
2017-01-23T06:28:12.064Z,71.73
2017-01-23T06:29:22.822Z,71.73
2017-01-23T06:30:33.558Z,71.83
2017-01-23T06:31:43.895Z,72.02
2017-01-23T06:32:54.226Z,71.92
2017-01-23T06:34:04.971Z,71.92
2017-01-23T06:35:15.298Z,72.02
2017-01-23T06:36:25.249Z,71.92
2017-01-23T06:37:35.633Z,71.92
2017-01-23T06:38:46.378Z,71.83
2017-01-23T06:39:57.127Z,72.02
2017-01-23T06:41:07.488Z,72.11
2017-01-23T06:42:17.425Z,71.83
2017-01-23T06:43:28.175Z,71.83
2017-01-23T06:44:37.728Z,71.92
2017-01-23T06:45:48.459Z,71.83
2017-01-23T06:46:58.416Z,72.02
2017-01-23T06:48:08.770Z,71.92
2017-01-23T06:49:19.511Z,72.02
2017-01-23T06:50:29.490Z,72.02
2017-01-23T06:51:39.838Z,72.02
2017-01-23T06:52:50.184Z,71.92
2017-01-23T06:54:00.926Z,72.02
2017-01-23T06:55:11.675Z,71.92
2017-01-23T06:56:22.022Z,72.02
2017-01-23T06:57:32.753Z,71.92
2017-01-23T06:58:43.093Z,72.02
2017-01-23T06:59:53.829Z,72.11
2017-01-23T07:01:04.178Z,71.92
2017-01-23T07:02:14.907Z,72.11
2017-01-23T07:03:25.273Z,72.02
2017-01-23T07:04:36.022Z,72.02
2017-01-23T07:05:46.763Z,72.11
2017-01-23T07:06:57.500Z,72.2
2017-01-23T07:08:07.851Z,72.11
2017-01-23T07:09:17.808Z,71.54
2017-01-23T07:10:28.145Z,71.45
2017-01-23T07:11:38.501Z,71.45
2017-01-23T07:12:49.240Z,71.54
2017-01-23T07:13:59.581Z,71.83
2017-01-23T07:15:09.921Z,71.64
2017-01-23T07:16:20.288Z,71.54
2017-01-23T07:17:30.235Z,71.64
2017-01-23T07:18:41.008Z,71.83
2017-01-23T07:19:51.739Z,71.83
2017-01-23T07:21:02.467Z,71.64
2017-01-23T07:22:12.812Z,71.54
2017-01-23T07:23:23.548Z,71.54
2017-01-23T07:24:33.494Z,71.73
2017-01-23T07:25:44.238Z,71.54
2017-01-23T07:26:54.964Z,71.26
2017-01-23T07:28:05.701Z,71.26
2017-01-23T07:29:16.049Z,71.73
2017-01-23T07:30:26.383Z,71.92
2017-01-23T07:31:37.125Z,71.83
2017-01-23T07:32:47.073Z,71.83
2017-01-23T07:33:57.430Z,71.45
2017-01-23T07:35:08.169Z,71.26
2017-01-23T07:36:18.524Z,71.26
2017-01-23T07:37:28.868Z,71.07
2017-01-23T07:38:39.226Z,71.26
2017-01-23T07:39:49.965Z,71.54
2017-01-23T07:41:00.302Z,71.54
2017-01-23T07:42:10.651Z,71.16
2017-01-23T07:43:20.608Z,71.35
2017-01-23T07:44:30.935Z,71.07
2017-01-23T07:45:41.273Z,71.07
2017-01-23T07:46:52.028Z,71.45
2017-01-23T07:48:02.800Z,71.26
2017-01-23T07:49:13.159Z,71.26
2017-01-23T07:50:23.926Z,71.35
2017-01-23T07:51:34.271Z,71.54
2017-01-23T07:52:43.841Z,71.35
2017-01-23T07:53:54.189Z,71.54
2017-01-23T07:55:04.938Z,71.35
2017-01-23T07:56:15.677Z,71.35
2017-01-23T07:57:25.641Z,71.45
2017-01-23T07:58:36.400Z,71.35
2017-01-23T07:59:46.776Z,71.26
2017-01-23T08:00:57.155Z,71.35
2017-01-23T08:02:07.506Z,71.26
2017-01-23T08:03:18.259Z,71.07
2017-01-23T08:04:29.047Z,71.07
2017-01-23T08:05:39.013Z,71.07
2017-01-23T08:06:49.353Z,71.07
2017-01-23T08:07:59.704Z,70.78
2017-01-23T08:09:10.047Z,70.78
2017-01-23T08:10:20.393Z,71.07
2017-01-23T08:11:31.129Z,70.88
2017-01-23T08:12:41.513Z,70.97
2017-01-23T08:13:51.463Z,71.26
2017-01-23T08:15:01.413Z,70.97
2017-01-23T08:16:11.356Z,71.35
2017-01-23T08:17:21.708Z,70.69
2017-01-23T08:18:32.056Z,71.35
2017-01-23T08:19:42.807Z,71.35
2017-01-23T08:20:53.563Z,71.35
2017-01-23T08:22:03.512Z,70.97
2017-01-23T08:23:13.866Z,71.26
2017-01-23T08:24:24.600Z,71.35
2017-01-23T08:25:35.326Z,71.07
2017-01-23T08:26:46.053Z,70.59
2017-01-23T08:27:56.814Z,70.97
2017-01-23T08:29:07.156Z,70.97
2017-01-23T08:30:17.902Z,71.35
2017-01-23T08:31:28.643Z,71.35
2017-01-23T08:32:39.370Z,71.35
2017-01-23T08:33:50.116Z,70.88
2017-01-23T08:35:00.849Z,70.4
2017-01-23T08:36:11.596Z,70.31
2017-01-23T08:37:22.333Z,70.4
2017-01-23T08:38:32.669Z,70.31
2017-01-23T08:39:43.014Z,70.4
2017-01-23T08:40:53.764Z,70.4
2017-01-23T08:42:04.513Z,70.69
2017-01-23T08:43:15.274Z,70.69
2017-01-23T08:44:26.012Z,70.69
2017-01-23T08:45:36.354Z,70.78
2017-01-23T08:46:46.710Z,70.31
2017-01-23T08:47:57.457Z,70.21
2017-01-23T08:49:07.409Z,70.21
2017-01-23T08:50:17.750Z,70.59
2017-01-23T08:51:27.697Z,70.73
2017-01-23T08:52:38.033Z,70.73
2017-01-23T08:53:48.380Z,70.63
2017-01-23T08:54:58.725Z,70.82
2017-01-23T08:56:09.502Z,70.44
2017-01-23T08:57:20.234Z,70.54
2017-01-23T08:58:30.173Z,70.54
2017-01-23T08:59:40.921Z,70.35
2017-01-23T09:00:51.261Z,70.73
2017-01-23T09:02:01.612Z,70.73
2017-01-23T09:03:12.364Z,70.73
2017-01-23T09:04:23.124Z,70.73
2017-01-23T09:05:33.462Z,70.54
2017-01-23T09:06:43.815Z,70.35
2017-01-23T09:07:54.145Z,70.25
2017-01-23T09:09:04.489Z,70.35
2017-01-23T09:10:15.219Z,70.06
2017-01-23T09:11:24.759Z,70.35
2017-01-23T09:12:35.103Z,70.35
2017-01-23T09:13:45.834Z,70.16
2017-01-23T09:14:56.571Z,70.25
2017-01-23T09:16:06.928Z,70.16
2017-01-23T09:17:17.670Z,70.16
2017-01-23T09:18:28.411Z,70.35
2017-01-23T09:19:38.764Z,70.25
2017-01-23T09:20:49.094Z,70.44
2017-01-23T09:21:59.841Z,70.35
2017-01-23T09:23:10.203Z,69.97
2017-01-23T09:24:20.555Z,70.35
2017-01-23T09:25:30.901Z,70.16
2017-01-23T09:26:41.637Z,70.35
2017-01-23T09:27:52.395Z,70.16
2017-01-23T09:29:02.352Z,69.97
2017-01-23T09:30:12.309Z,70.44
2017-01-23T09:31:23.076Z,70.35
2017-01-23T09:32:33.019Z,70.35
2017-01-23T09:33:42.971Z,70.35
2017-01-23T09:34:53.707Z,70.44
2017-01-23T09:36:03.655Z,70.44
2017-01-23T09:37:13.995Z,70.44
2017-01-23T09:38:24.337Z,70.35
2017-01-23T09:39:34.668Z,70.16
2017-01-23T09:40:45.418Z,70.06
2017-01-23T09:41:56.183Z,70.06
2017-01-23T09:43:06.149Z,70.06
2017-01-23T09:44:16.896Z,70.25
2017-01-23T09:45:27.658Z,70.35
2017-01-23T09:46:38.262Z,70.25
2017-01-23T09:47:48.605Z,70.16
2017-01-23T09:48:59.342Z,70.35
2017-01-23T09:50:08.890Z,69.97
2017-01-23T09:51:19.635Z,70.44
2017-01-23T09:52:30.368Z,70.35
2017-01-23T09:53:40.722Z,69.97
2017-01-23T09:54:51.086Z,70.25
2017-01-23T09:56:01.435Z,70.54
2017-01-23T09:57:11.809Z,69.87
2017-01-23T09:58:22.541Z,69.78
2017-01-23T09:59:33.319Z,70.44
2017-01-23T10:00:43.703Z,70.35
2017-01-23T10:01:54.044Z,69.78
2017-01-23T10:03:04.787Z,69.53
2017-01-23T10:04:15.133Z,70.25
2017-01-23T10:05:25.896Z,70.35
2017-01-23T10:06:36.646Z,70.44
2017-01-23T10:07:46.626Z,70.63
2017-01-23T10:08:57.392Z,70.35
2017-01-23T10:10:08.140Z,70.25
2017-01-23T10:11:18.500Z,70.44
2017-01-23T10:12:29.242Z,70.82
2017-01-23T10:13:40.009Z,70.73
2017-01-23T10:14:50.363Z,70.44
2017-01-23T10:16:01.109Z,70.63
2017-01-23T10:17:11.488Z,70.73
2017-01-23T10:18:21.500Z,70.73
2017-01-23T10:19:31.462Z,70.63
2017-01-23T10:20:41.830Z,70.73
2017-01-23T10:21:52.205Z,70.63
2017-01-23T10:23:03.197Z,70.54
2017-01-23T10:24:13.954Z,70.82
2017-01-23T10:25:24.315Z,70.82
2017-01-23T10:26:34.683Z,70.54
2017-01-23T10:27:45.068Z,70.73
2017-01-23T10:28:55.405Z,70.73
2017-01-23T10:30:05.365Z,70.73
2017-01-23T10:31:15.719Z,70.73
2017-01-23T10:32:26.076Z,70.54
2017-01-23T10:33:36.813Z,70.73
2017-01-23T10:34:47.596Z,70.63
2017-01-23T10:35:57.560Z,70.63
2017-01-23T10:37:07.900Z,70.06
2017-01-23T10:38:18.679Z,70.25
2017-01-23T10:39:29.457Z,70.35
2017-01-23T10:40:40.208Z,70.16
2017-01-23T10:41:50.563Z,70.16
2017-01-23T10:43:00.902Z,70.16
2017-01-23T10:44:11.524Z,69.97
2017-01-23T10:45:22.260Z,69.68
2017-01-23T10:46:32.645Z,69.59
2017-01-23T10:47:42.992Z,69.68
2017-01-23T10:48:53.731Z,69.59
2017-01-23T10:50:04.078Z,69.49
2017-01-23T10:51:14.039Z,69.49
2017-01-23T10:52:23.992Z,69.78
2017-01-23T10:53:34.360Z,70.35
2017-01-23T10:54:44.728Z,69.53
2017-01-23T10:55:54.680Z,69.72
2017-01-23T10:57:05.427Z,69.82
2017-01-23T10:58:15.784Z,69.72
2017-01-23T10:59:26.134Z,70.44
2017-01-23T11:00:36.880Z,70.35
2017-01-23T11:01:47.229Z,70.1
2017-01-23T11:02:57.584Z,70.16
2017-01-23T11:04:08.362Z,70.25
2017-01-23T11:05:19.173Z,70.16
2017-01-23T11:06:29.117Z,70.06
2017-01-23T11:07:39.867Z,70.54
2017-01-23T11:08:50.237Z,70.25
2017-01-23T11:10:01.008Z,70.25
2017-01-23T11:11:11.752Z,70.25
2017-01-23T11:12:22.119Z,70.35
2017-01-23T11:13:32.867Z,70.16
2017-01-23T11:14:43.655Z,70.25
2017-01-23T11:15:54.425Z,70.16
2017-01-23T11:17:04.770Z,70.63
2017-01-23T11:18:14.752Z,70.35
2017-01-23T11:19:25.105Z,70.35
2017-01-23T11:20:35.845Z,70.25
2017-01-23T11:21:46.596Z,70.82
2017-01-23T11:22:57.405Z,70.63
2017-01-23T11:24:08.153Z,70.73
2017-01-23T11:25:18.503Z,70.63
2017-01-23T11:26:29.269Z,70.35
2017-01-23T11:27:39.635Z,70.73
2017-01-23T11:28:50.004Z,70.63
2017-01-23T11:30:00.738Z,70.44
2017-01-23T11:31:11.477Z,70.44
2017-01-23T11:32:21.836Z,70.35
2017-01-23T11:33:32.185Z,70.73
2017-01-23T11:34:42.561Z,70.63
2017-01-23T11:35:53.332Z,70.44
2017-01-23T11:37:03.725Z,70.73
2017-01-23T11:38:14.485Z,70.54
2017-01-23T11:39:24.843Z,70.82
2017-01-23T11:40:35.190Z,70.25
2017-01-23T11:41:45.581Z,70.44
2017-01-23T11:42:55.535Z,70.73
2017-01-23T11:44:06.311Z,70.73
2017-01-23T11:45:16.672Z,70.35
2017-01-23T11:46:27.424Z,70.35
2017-01-23T11:47:38.196Z,70.16
2017-01-23T11:48:48.532Z,70.35
2017-01-23T11:49:58.474Z,70.35
2017-01-23T11:51:08.854Z,70.82
2017-01-23T11:52:18.422Z,70.73
2017-01-23T11:53:28.774Z,70.54
2017-01-23T11:54:39.386Z,70.63
2017-01-23T11:55:50.128Z,70.44
2017-01-23T11:57:00.876Z,70.44
2017-01-23T11:58:11.242Z,70.44
2017-01-23T11:59:21.595Z,70.82
2017-01-23T12:00:32.349Z,70.54
2017-01-23T12:01:43.130Z,70.54
2017-01-23T12:02:53.882Z,70.73
2017-01-23T12:04:03.856Z,70.73
2017-01-23T12:05:13.412Z,70.73
2017-01-23T12:06:24.174Z,70.54
2017-01-23T12:07:34.940Z,70.44
2017-01-23T12:08:45.300Z,70.82
2017-01-23T12:09:56.060Z,70.82
2017-01-23T12:11:06.468Z,70.54
2017-01-23T12:12:16.425Z,70.82
2017-01-23T12:13:26.388Z,70.73
2017-01-23T12:14:37.146Z,70.63
2017-01-23T12:15:47.912Z,70.44
2017-01-23T12:16:58.674Z,70.35
2017-01-23T12:18:09.030Z,70.63
2017-01-23T12:19:19.807Z,70.44
2017-01-23T12:20:30.586Z,70.54
2017-01-23T12:21:41.367Z,70.63
2017-01-23T12:22:52.140Z,70.73
2017-01-23T12:24:02.934Z,70.82
2017-01-23T12:25:13.308Z,70.73
2017-01-23T12:26:24.063Z,70.73
2017-01-23T12:27:34.410Z,70.63
2017-01-23T12:28:44.776Z,70.35
2017-01-23T12:29:55.122Z,70.82
2017-01-23T12:31:05.459Z,70.73
2017-01-23T12:32:16.198Z,70.82
2017-01-23T12:33:26.953Z,70.73
2017-01-23T12:34:36.910Z,70.73
2017-01-23T12:35:47.265Z,70.63
2017-01-23T12:36:58.024Z,70.73
2017-01-23T12:38:08.761Z,70.92
2017-01-23T12:39:18.776Z,70.73
2017-01-23T12:40:29.124Z,70.73
2017-01-23T12:41:39.868Z,70.73
2017-01-23T12:42:49.826Z,70.54
2017-01-23T12:44:00.559Z,70.82
2017-01-23T12:45:11.299Z,70.73
2017-01-23T12:46:21.647Z,71.39
2017-01-23T12:47:31.624Z,71.39
2017-01-23T12:48:42.202Z,71.39
2017-01-23T12:49:52.953Z,71.11
2017-01-23T12:51:02.519Z,70.73
2017-01-23T12:52:12.472Z,70.69
2017-01-23T12:53:23.237Z,70.44
2017-01-23T12:54:32.789Z,70.73
2017-01-23T12:55:43.528Z,70.16
2017-01-23T12:56:53.885Z,70.88
2017-01-23T12:58:04.642Z,70.12
2017-01-23T12:59:14.596Z,70.4
2017-01-23T13:00:24.179Z,70.82
2017-01-23T13:01:34.517Z,70.78
2017-01-23T13:02:45.302Z,70.78
2017-01-23T13:03:56.030Z,70.69
2017-01-23T13:05:06.389Z,70.69
2017-01-23T13:06:16.722Z,70.78
2017-01-23T13:07:26.687Z,71.35
2017-01-23T13:08:37.435Z,70.69
2017-01-23T13:09:48.179Z,70.31
2017-01-23T13:10:58.527Z,70.4
2017-01-23T13:12:08.882Z,70.4
2017-01-23T13:13:18.831Z,70.59
2017-01-23T13:14:29.605Z,70.69
2017-01-23T13:15:40.350Z,70.69
2017-01-23T13:16:50.694Z,70.5
2017-01-23T13:18:01.444Z,70.54
2017-01-23T13:19:11.790Z,70.44
2017-01-23T13:20:22.148Z,70.54
2017-01-23T13:21:32.892Z,70.54
2017-01-23T13:22:42.845Z,70.54
2017-01-23T13:23:53.232Z,70.44
2017-01-23T13:25:03.578Z,70.4
2017-01-23T13:26:13.126Z,70.54
2017-01-23T13:27:23.858Z,70.82
2017-01-23T13:28:34.607Z,70.44
2017-01-23T13:29:44.957Z,70.44
2017-01-23T13:30:55.308Z,70.54
2017-01-23T13:32:05.715Z,70.73
2017-01-23T13:33:16.062Z,70.73
2017-01-23T13:34:26.446Z,70.73
2017-01-23T13:35:37.216Z,70.63
2017-01-23T13:36:47.579Z,70.73
2017-01-23T13:37:57.948Z,71.39
2017-01-23T13:39:07.920Z,70.59
2017-01-23T13:40:18.714Z,71.39
2017-01-23T13:41:29.077Z,71.48
2017-01-23T13:42:39.878Z,71.39
2017-01-23T13:43:50.246Z,71.39
2017-01-23T13:45:00.629Z,71.35
2017-01-23T13:46:11.467Z,71.16
2017-01-23T13:47:21.851Z,70.69
2017-01-23T13:48:32.239Z,71.01
2017-01-23T13:49:42.998Z,71.26
2017-01-23T13:50:53.802Z,70.97
2017-01-23T13:52:04.576Z,71.16
2017-01-23T13:53:15.355Z,71.26
2017-01-23T13:54:26.119Z,71.07
2017-01-23T13:55:36.502Z,70.97
2017-01-23T13:56:46.866Z,70.97
2017-01-23T13:57:57.201Z,71.07
2017-01-23T13:59:07.958Z,70.97
2017-01-23T14:00:18.307Z,71.26
2017-01-23T14:01:29.085Z,70.97
2017-01-23T14:02:40.106Z,71.07
2017-01-23T14:03:50.454Z,71.16
2017-01-23T14:05:01.216Z,71.07
2017-01-23T14:06:11.565Z,70.78
2017-01-23T14:07:21.922Z,71.45
2017-01-23T14:08:32.659Z,71.16
2017-01-23T14:09:43.415Z,71.45
2017-01-23T14:10:53.775Z,71.54
2017-01-23T14:12:04.153Z,71.35
2017-01-23T14:13:14.500Z,71.07
2017-01-23T14:14:25.246Z,70.78
2017-01-23T14:15:36.033Z,70.97
2017-01-23T14:16:46.795Z,71.07
2017-01-23T14:17:57.150Z,71.35
2017-01-23T14:19:07.493Z,71.07
2017-01-23T14:20:18.259Z,71.07
2017-01-23T14:21:29.021Z,71.07
2017-01-23T14:22:39.783Z,70.78
2017-01-23T14:23:50.525Z,70.78
2017-01-23T14:25:01.292Z,70.78
2017-01-23T14:26:12.075Z,70.78
2017-01-23T14:27:22.841Z,70.78
2017-01-23T14:28:33.620Z,71.26
2017-01-23T14:29:43.993Z,70.97
2017-01-23T14:30:54.785Z,71.35
2017-01-23T14:32:05.158Z,71.45
2017-01-23T14:33:15.513Z,71.54
2017-01-23T14:34:25.857Z,71.45
2017-01-23T14:35:36.601Z,71.45
2017-01-23T14:36:47.345Z,71.35
2017-01-23T14:37:57.691Z,71.26
2017-01-23T14:39:07.643Z,71.54
2017-01-23T14:40:18.383Z,71.64
2017-01-23T14:41:28.753Z,71.64
2017-01-23T14:42:39.488Z,71.26
2017-01-23T14:43:50.225Z,71.35
2017-01-23T14:45:00.977Z,71.35
2017-01-23T14:46:11.562Z,71.35
2017-01-23T14:47:22.298Z,71.07
2017-01-23T14:48:33.052Z,71.26
2017-01-23T14:49:43.399Z,71.54
2017-01-23T14:50:54.154Z,71.45
2017-01-23T14:52:04.907Z,71.35
2017-01-23T14:53:15.650Z,71.54
2017-01-23T14:54:26.386Z,71.07
2017-01-23T14:55:37.128Z,71.07
2017-01-23T14:56:47.473Z,71.07
2017-01-23T14:57:58.253Z,71.35
2017-01-23T14:59:09.009Z,71.45
2017-01-23T15:00:19.754Z,71.64
2017-01-23T15:01:30.527Z,71.35
2017-01-23T15:02:41.288Z,71.45
2017-01-23T15:03:52.036Z,71.07
2017-01-23T15:05:02.770Z,71.64
2017-01-23T15:06:13.108Z,71.54
2017-01-23T15:07:23.856Z,71.54
2017-01-23T15:08:33.801Z,71.45
2017-01-23T15:09:44.149Z,71.07
2017-01-23T15:10:54.929Z,70.88
2017-01-23T15:12:05.277Z,71.54
2017-01-23T15:13:15.660Z,71.26
2017-01-23T15:14:25.596Z,71.07
2017-01-23T15:15:36.370Z,71.45
2017-01-23T15:16:47.083Z,71.35
2017-01-23T15:17:57.429Z,71.45
2017-01-23T15:19:07.773Z,71.35
2017-01-23T15:20:18.515Z,71.45
2017-01-23T15:21:29.284Z,71.45
2017-01-23T15:22:40.052Z,71.07
2017-01-23T15:23:50.789Z,71.45
2017-01-23T15:25:01.125Z,71.16
2017-01-23T15:26:11.860Z,71.64
2017-01-23T15:27:22.609Z,71.16
2017-01-23T15:28:33.362Z,71.07
2017-01-23T15:29:44.093Z,71.26
2017-01-23T15:30:54.846Z,71.54
2017-01-23T15:32:05.591Z,71.45
2017-01-23T15:33:16.343Z,71.35
2017-01-23T15:34:26.715Z,71.45
2017-01-23T15:35:37.466Z,71.64
2017-01-23T15:36:48.211Z,71.16
2017-01-23T15:37:58.970Z,71.07
2017-01-23T15:39:08.920Z,71.64
2017-01-23T15:40:19.689Z,71.45
2017-01-23T15:41:30.438Z,71.64